NORTHEAST SUFFOLK  -  Frost Advisory Frost Advisory        NORTHWEST SUFFOLK  -  Frost Advisory Frost Advisory        SOUTHEAST SUFFOLK  -  Frost Advisory Frost Advisory        SOUTHWEST SUFFOLK  -  Frost Advisory Frost Advisory      

Active alerts

Northwest Suffolk
  Details for Northwest Suffolk Frost Advisory
Southwest Suffolk
  Details for Southwest Suffolk Frost Advisory
Northeast Suffolk
  Details for Northeast Suffolk Frost Advisory
Southeast Suffolk
  Details for Southeast Suffolk Frost Advisory


WXM80 ListenWXM80 Stop

You find our weather info also at:

UK Metoffice

WeatherCloud

Weather Underground

Northeastern Weather Network

AWEKAS

Citizen Weather Observer Program (CWOP)

HAMweather, WeatherForYou, PWS Weather


Weather Underground History page Text

Daily Summary for December 1, 2017 Units:  English    Metric   Both
« Previous Day
Next Day »
Daily Weekly Monthly Yearly Custom
  High: Low: Average:
Temperature: 52.3 °F 42.3 °F 47.9 °F
Dew Point: 48.4 °F 33.2 °F 40.1 °F
Humidity: 92 % 58 % 75 %
Wind Speed: 10.8 mph 0.0 mph 4.2 mph
Wind Gust: 16.1 mph - -
Wind:- - South
Pressure: 30.31 in 30.01 in -
Precipitation: 0.00 in    
Historical Graphs
 
 
Tabular Data for December 1, 2017
Time Temperature Dew Point Pressure Wind Wind Speed Wind Gust Humidity Rainfall Rate (Hourly)
00:01 50.6 °F 48.4 °F 30.03 in Calm     92 % 0.00 in
00:06 50.6 °F 48.4 °F 30.03 in Calm     92 % 0.00 in
00:11 50.6 °F 48.4 °F 30.02 in Calm     92 % 0.00 in
00:16 50.5 °F 48.3 °F 30.02 in Calm     92 % 0.00 in
00:26 50.4 °F 48.2 °F 30.02 in WSW 2.1 mph 3.5 mph 92 % 0.00 in
00:31 50.4 °F 48.2 °F 30.02 in SW 1.8 mph 4.0 mph 92 % 0.00 in
00:36 50.4 °F 48.2 °F 30.02 in SSW 0.2 mph 3.5 mph 92 % 0.00 in
00:41 50.3 °F 48.1 °F 30.01 in SSW 0.3 mph 2.3 mph 92 % 0.00 in
00:46 50.3 °F 48.1 °F 30.01 in SSW 0.7 mph 2.3 mph 92 % 0.00 in
00:56 50.2 °F 48.0 °F 30.01 in SSW 0.2 mph 3.5 mph 92 % 0.00 in
01:06 50.0 °F 47.8 °F 30.01 in SSW 0.7 mph 3.5 mph 92 % 0.00 in
01:11 50.0 °F 47.8 °F 30.01 in SSW 0.7 mph 3.5 mph 92 % 0.00 in
01:16 49.9 °F 47.7 °F 30.02 in SW 1.9 mph 4.0 mph 92 % 0.00 in
01:31 49.7 °F 47.5 °F 30.01 in SW 0.3 mph 1.2 mph 92 % 0.00 in
01:36 49.7 °F 47.5 °F 30.01 in SW 0.6 mph 2.3 mph 92 % 0.00 in
01:41 49.7 °F 47.5 °F 30.01 in SSW 1.1 mph 3.5 mph 92 % 0.00 in
01:46 49.6 °F 47.4 °F 30.01 in SSW 0.1 mph 2.3 mph 92 % 0.00 in
01:51 49.6 °F 47.4 °F 30.01 in SW 0.7 mph 2.0 mph 92 % 0.00 in
01:56 49.6 °F 47.4 °F 30.02 in WSW 1.4 mph 2.3 mph 92 % 0.00 in
02:01 49.6 °F 47.4 °F 30.01 in WSW 0.1 mph 1.2 mph 92 % 0.00 in
02:06 49.5 °F 47.3 °F 30.01 in WSW 1.5 mph 2.3 mph 92 % 0.00 in
02:11 49.5 °F 47.3 °F 30.02 in West 1.1 mph 3.5 mph 92 % 0.00 in
02:16 49.6 °F 47.4 °F 30.01 in WSW 1.0 mph 3.5 mph 92 % 0.00 in
02:21 49.6 °F 47.4 °F 30.01 in Calm     92 % 0.00 in
02:26 49.6 °F 47.4 °F 30.02 in WSW 1.4 mph 3.5 mph 92 % 0.00 in
02:31 49.6 °F 47.4 °F 30.01 in WSW 1.8 mph 3.5 mph 92 % 0.00 in
02:36 49.6 °F 47.4 °F 30.02 in WSW 1.4 mph 3.5 mph 92 % 0.00 in
02:42 49.6 °F 47.4 °F 30.01 in WSW 0.2 mph 3.5 mph 92 % 0.00 in
02:47 49.7 °F 47.5 °F 30.02 in WSW 1.2 mph 5.0 mph 92 % 0.00 in
02:52 49.7 °F 47.5 °F 30.01 in WSW 3.4 mph 4.6 mph 92 % 0.00 in
02:57 49.7 °F 47.5 °F 30.01 in Calm   4.6 mph 92 % 0.00 in
03:02 49.7 °F 47.5 °F 30.02 in WSW 1.8 mph 5.0 mph 92 % 0.00 in
03:07 49.7 °F 47.5 °F 30.02 in West 1.4 mph 3.5 mph 92 % 0.00 in
03:12 49.7 °F 47.5 °F 30.02 in SW 1.6 mph 3.5 mph 92 % 0.00 in
03:17 49.7 °F 47.5 °F 30.01 in Calm     92 % 0.00 in
03:22 49.7 °F 47.5 °F 30.02 in West 0.1 mph 1.2 mph 92 % 0.00 in
03:27 49.6 °F 47.4 °F 30.02 in West 0.1 mph 3.5 mph 92 % 0.00 in
03:32 49.6 °F 47.4 °F 30.02 in SW 2.9 mph 4.6 mph 92 % 0.00 in
03:37 49.6 °F 47.4 °F 30.02 in WNW 0.8 mph 2.3 mph 92 % 0.00 in
03:42 49.6 °F 47.4 °F 30.02 in WNW 0.3 mph 1.2 mph 92 % 0.00 in
03:47 49.5 °F 47.3 °F 30.02 in WNW 0.3 mph 3.5 mph 92 % 0.00 in
03:52 49.4 °F 46.9 °F 30.02 in Calm     91 % 0.00 in
03:57 49.3 °F 46.8 °F 30.03 in WNW 0.9 mph 2.3 mph 91 % 0.00 in
04:02 49.1 °F 46.6 °F 30.03 in West 0.1 mph 1.2 mph 91 % 0.00 in
04:07 49.0 °F 46.5 °F 30.02 in WNW 0.9 mph 3.0 mph 91 % 0.00 in
04:12 48.8 °F 46.3 °F 30.02 in WNW 2.8 mph 6.0 mph 91 % 0.00 in
04:17 48.6 °F 46.1 °F 30.03 in WNW 0.9 mph 4.0 mph 91 % 0.00 in
04:22 48.4 °F 45.6 °F 30.03 in West 3.2 mph 6.0 mph 90 % 0.00 in
04:27 48.2 °F 45.4 °F 30.03 in NW 2.9 mph 4.6 mph 90 % 0.00 in
04:32 48.1 °F 45.3 °F 30.03 in West 4.0 mph 6.9 mph 90 % 0.00 in
04:37 48.0 °F 45.2 °F 30.03 in West 0.1 mph 1.2 mph 90 % 0.00 in
04:42 47.9 °F 45.1 °F 30.03 in WSW 0.2 mph 1.0 mph 90 % 0.00 in
04:52 47.7 °F 45.2 °F 30.04 in West 2.7 mph 4.0 mph 91 % 0.00 in
04:58 47.6 °F 44.8 °F 30.04 in West 1.9 mph 3.5 mph 90 % 0.00 in
05:03 47.5 °F 45.0 °F 30.04 in WNW 3.4 mph 5.0 mph 91 % 0.00 in
05:08 47.4 °F 44.9 °F 30.04 in WNW 5.7 mph 10.4 mph 91 % 0.00 in
05:13 47.4 °F 44.9 °F 30.05 in West 3.0 mph 4.6 mph 91 % 0.00 in
05:18 47.3 °F 44.8 °F 30.05 in NW 3.0 mph 6.9 mph 91 % 0.00 in
05:23 47.2 °F 44.4 °F 30.05 in WSW 1.2 mph 8.1 mph 90 % 0.00 in
05:28 47.2 °F 44.4 °F 30.06 in WNW 4.0 mph 8.1 mph 90 % 0.00 in
05:33 47.1 °F 44.3 °F 30.06 in WNW 7.2 mph 11.5 mph 90 % 0.00 in
05:38 47.0 °F 44.2 °F 30.06 in WNW 3.4 mph 9.2 mph 90 % 0.00 in
05:48 46.9 °F 44.1 °F 30.07 in WNW 0.5 mph 5.8 mph 90 % 0.00 in
05:53 46.8 °F 44.0 °F 30.07 in WNW 1.3 mph 3.5 mph 90 % 0.00 in
06:03 46.6 °F 43.5 °F 30.07 in WNW 4.7 mph 9.2 mph 89 % 0.00 in
06:08 46.5 °F 43.4 °F 30.08 in NW 2.1 mph 5.0 mph 89 % 0.00 in
06:13 46.4 °F 43.3 °F 30.08 in NNW 2.4 mph 8.1 mph 89 % 0.00 in
06:18 46.3 °F 43.2 °F 30.08 in NW 1.9 mph 5.8 mph 89 % 0.00 in
06:23 46.3 °F 43.2 °F 30.09 in NW 3.3 mph 8.1 mph 89 % 0.00 in
06:28 46.2 °F 43.1 °F 30.09 in NW 3.4 mph 6.9 mph 89 % 0.00 in
06:33 46.2 °F 43.1 °F 30.10 in NW 0.6 mph 3.0 mph 89 % 0.00 in
06:38 46.1 °F 42.7 °F 30.10 in NW 3.8 mph 9.2 mph 88 % 0.00 in
06:43 46.0 °F 42.6 °F 30.10 in NW 1.6 mph 4.6 mph 88 % 0.00 in
06:53 46.0 °F 42.3 °F 30.10 in NNW 2.9 mph 5.8 mph 87 % 0.00 in
06:58 45.9 °F 42.2 °F 30.11 in WNW 3.3 mph 6.9 mph 87 % 0.00 in
07:03 45.9 °F 42.2 °F 30.12 in NNW 4.2 mph 7.0 mph 87 % 0.00 in
07:08 45.8 °F 42.2 °F 30.12 in NW 1.5 mph 8.1 mph 87 % 0.00 in
07:13 45.8 °F 42.2 °F 30.12 in NW 3.3 mph 6.9 mph 87 % 0.00 in
07:18 45.7 °F 42.1 °F 30.12 in NW 1.0 mph 3.5 mph 87 % 0.00 in
07:24 45.7 °F 42.1 °F 30.12 in WNW 2.9 mph 5.8 mph 87 % 0.00 in
07:29 45.6 °F 41.7 °F 30.13 in NNW 2.4 mph 3.5 mph 86 % 0.00 in
07:34 45.5 °F 41.6 °F 30.13 in North 3.4 mph 5.8 mph 86 % 0.00 in
07:49 45.5 °F 41.6 °F 30.13 in WNW 4.0 mph 5.8 mph 86 % 0.00 in
07:54 45.5 °F 41.6 °F 30.13 in NNW 1.8 mph 4.6 mph 86 % 0.00 in
07:59 45.6 °F 41.7 °F 30.14 in NW 1.0 mph 3.5 mph 86 % 0.00 in
08:04 45.6 °F 41.7 °F 30.14 in NNE 2.2 mph 6.0 mph 86 % 0.00 in
08:09 45.7 °F 41.4 °F 30.14 in NW 2.1 mph 4.6 mph 85 % 0.00 in
08:14 45.8 °F 41.5 °F 30.14 in NW 2.0 mph 3.5 mph 85 % 0.00 in
08:19 45.9 °F 41.6 °F 30.14 in NW 3.1 mph 5.8 mph 85 % 0.00 in
08:24 46.0 °F 41.4 °F 30.15 in NW 3.7 mph 8.0 mph 84 % 0.00 in
08:30 46.0 °F 41.4 °F 30.15 in WNW 3.6 mph 9.2 mph 84 % 0.00 in
08:40 46.3 °F 41.4 °F 30.16 in North 3.4 mph 4.6 mph 83 % 0.00 in
08:45 46.4 °F 41.5 °F 30.16 in North 1.3 mph 3.5 mph 83 % 0.00 in
08:50 46.5 °F 41.6 °F 30.16 in North 1.4 mph 3.5 mph 83 % 0.00 in
09:00 46.8 °F 41.9 °F 30.16 in NNW 3.5 mph 5.0 mph 83 % 0.00 in
09:05 47.0 °F 42.1 °F 30.16 in NW 1.8 mph 4.6 mph 83 % 0.00 in
09:15 47.6 °F 42.4 °F 30.16 in NNW 0.6 mph 2.3 mph 82 % 0.00 in
09:20 47.9 °F 42.3 °F 30.16 in NW 3.5 mph 6.9 mph 81 % 0.00 in
09:25 48.3 °F 42.4 °F 30.17 in NW 2.8 mph 6.9 mph 80 % 0.00 in
09:30 48.6 °F 42.4 °F 30.16 in NNE 2.9 mph 6.0 mph 79 % 0.00 in
09:40 49.3 °F 42.4 °F 30.17 in NNE 2.2 mph 8.1 mph 77 % 0.00 in
09:45 49.6 °F 42.7 °F 30.17 in WNW 1.2 mph 3.5 mph 77 % 0.00 in
09:50 50.0 °F 42.4 °F 30.17 in NW 3.0 mph 6.9 mph 75 % 0.00 in
09:55 50.3 °F 42.3 °F 30.17 in WNW 1.3 mph 5.8 mph 74 % 0.00 in
10:00 50.5 °F 42.5 °F 30.17 in NW 2.5 mph 6.9 mph 74 % 0.00 in
10:06 50.9 °F 42.9 °F 30.17 in NNW 5.0 mph 7.0 mph 74 % 0.00 in
10:11 51.2 °F 43.2 °F 30.17 in NNW 3.0 mph 6.0 mph 74 % 0.00 in
10:22 51.8 °F 41.9 °F 30.17 in NNW 3.1 mph 8.1 mph 69 % 0.00 in
10:29 52.0 °F 41.8 °F 30.17 in NNE 5.5 mph 9.2 mph 68 % 0.00 in
10:34 52.0 °F 41.4 °F 30.17 in NE 5.2 mph 7.0 mph 67 % 0.00 in
10:49 51.9 °F 39.3 °F 30.17 in NNE 5.6 mph 11.5 mph 62 % 0.00 in
11:10 51.4 °F 38.4 °F 30.16 in North 6.5 mph 12.0 mph 61 % 0.00 in
11:15 51.4 °F 38.4 °F 30.16 in NNW 4.3 mph 7.0 mph 61 % 0.00 in
11:20 51.4 °F 38.8 °F 30.16 in North 4.1 mph 6.9 mph 62 % 0.00 in
11:25 51.5 °F 38.9 °F 30.16 in NW 2.6 mph 8.1 mph 62 % 0.00 in
11:41 51.4 °F 38.8 °F 30.16 in NW 4.2 mph 6.0 mph 62 % 0.00 in
11:46 51.4 °F 39.2 °F 30.17 in NNW 4.2 mph 6.9 mph 63 % 0.00 in
11:56 51.9 °F 39.7 °F 30.17 in NNW 3.8 mph 8.1 mph 63 % 0.00 in
12:01 52.0 °F 39.4 °F 30.17 in NW 3.1 mph 5.8 mph 62 % 0.00 in
12:06 52.0 °F 39.0 °F 30.17 in North 3.6 mph 8.1 mph 61 % 0.00 in
12:11 52.2 °F 39.6 °F 30.17 in North 4.5 mph 6.9 mph 62 % 0.00 in
12:16 52.3 °F 38.8 °F 30.17 in West 6.6 mph 11.5 mph 60 % 0.00 in
12:21 52.2 °F 38.7 °F 30.17 in NNW 3.9 mph 7.0 mph 60 % 0.00 in
12:26 52.1 °F 39.1 °F 30.17 in North 3.9 mph 10.4 mph 61 % 0.00 in
12:30 52.0 °F 39.4 °F 30.17 in North 2.4 mph 6.9 mph 62 % 0.00 in
12:35 52.0 °F 38.5 °F 30.17 in North 5.7 mph 10.4 mph 60 % 0.00 in
12:41 51.9 °F 38.9 °F 30.17 in NNW 3.0 mph 7.0 mph 61 % 0.00 in
12:46 51.8 °F 39.2 °F 30.17 in North 3.0 mph 7.0 mph 62 % 0.00 in
12:51 51.7 °F 38.7 °F 30.17 in NNW 3.0 mph 10.0 mph 61 % 0.00 in
12:56 51.6 °F 39.0 °F 30.17 in NNW 3.0 mph 7.0 mph 62 % 0.00 in
13:06 51.5 °F 38.5 °F 30.16 in NNE 4.0 mph 9.2 mph 61 % 0.00 in
13:11 51.4 °F 38.0 °F 30.16 in North 4.8 mph 8.1 mph 60 % 0.00 in
13:16 51.5 °F 38.5 °F 30.17 in NNW 3.7 mph 9.2 mph 61 % 0.00 in
13:21 51.5 °F 38.5 °F 30.16 in NNE 6.2 mph 10.4 mph 61 % 0.00 in
13:26 51.7 °F 38.7 °F 30.16 in NNE 4.9 mph 8.1 mph 61 % 0.00 in
13:31 51.9 °F 38.9 °F 30.16 in North 3.9 mph 6.9 mph 61 % 0.00 in
13:36 51.9 °F 38.9 °F 30.16 in NNE 3.7 mph 9.2 mph 61 % 0.00 in
13:41 51.9 °F 38.4 °F 30.16 in North 5.6 mph 10.4 mph 60 % 0.00 in
13:46 51.9 °F 38.0 °F 30.17 in NNE 5.2 mph 9.2 mph 59 % 0.00 in
13:51 51.9 °F 38.0 °F 30.17 in North 5.4 mph 8.1 mph 59 % 0.00 in
14:01 51.9 °F 38.4 °F 30.17 in NW 3.0 mph 4.6 mph 60 % 0.00 in
14:06 51.9 °F 38.4 °F 30.17 in NNW 2.7 mph 5.8 mph 60 % 0.00 in
14:11 51.8 °F 37.5 °F 30.17 in NNE 4.1 mph 5.8 mph 58 % 0.00 in
14:16 51.5 °F 38.5 °F 30.17 in NNE 3.5 mph 6.9 mph 61 % 0.00 in
14:21 51.4 °F 38.8 °F 30.17 in North 5.5 mph 9.2 mph 62 % 0.00 in
14:26 51.3 °F 37.9 °F 30.17 in NNW 6.3 mph 11.5 mph 60 % 0.00 in
14:36 50.8 °F 37.4 °F 30.17 in NNW 6.3 mph 10.4 mph 60 % 0.00 in
14:41 50.6 °F 37.6 °F 30.17 in NNE 5.4 mph 8.1 mph 61 % 0.00 in
14:46 50.4 °F 37.0 °F 30.17 in NNE 5.2 mph 8.1 mph 60 % 0.00 in
14:51 50.3 °F 36.9 °F 30.17 in NNW 5.7 mph 9.2 mph 60 % 0.00 in
14:56 50.1 °F 36.7 °F 30.17 in North 5.6 mph 10.4 mph 60 % 0.00 in
15:01 50.0 °F 37.1 °F 30.17 in NNE 6.7 mph 8.1 mph 61 % 0.00 in
15:06 49.9 °F 37.4 °F 30.17 in East 4.5 mph 6.9 mph 62 % 0.00 in
15:11 49.7 °F 37.6 °F 30.18 in North 3.2 mph 6.9 mph 63 % 0.00 in
15:16 49.6 °F 37.9 °F 30.18 in NNE 5.1 mph 8.0 mph 64 % 0.00 in
15:26 49.3 °F 38.0 °F 30.18 in NNW 6.4 mph 8.0 mph 65 % 0.00 in
15:31 49.1 °F 37.4 °F 30.18 in North 7.2 mph 9.2 mph 64 % 0.00 in
15:36 49.0 °F 37.3 °F 30.18 in North 5.1 mph 9.0 mph 64 % 0.00 in
15:41 48.9 °F 37.3 °F 30.18 in NNE 4.3 mph 8.1 mph 64 % 0.00 in
15:57 48.5 °F 37.7 °F 30.19 in NE 5.9 mph 10.4 mph 66 % 0.00 in
16:02 48.4 °F 37.6 °F 30.20 in NNE 6.8 mph 10.0 mph 66 % 0.00 in
16:07 48.2 °F 37.4 °F 30.20 in NNE 3.9 mph 9.2 mph 66 % 0.00 in
16:17 48.0 °F 36.8 °F 30.20 in NNE 5.3 mph 8.1 mph 65 % 0.00 in
16:22 47.9 °F 36.3 °F 30.20 in North 3.6 mph 9.2 mph 64 % 0.00 in
16:27 47.8 °F 36.6 °F 30.21 in NNE 5.2 mph 8.1 mph 65 % 0.00 in
16:32 47.7 °F 36.1 °F 30.21 in North 4.8 mph 7.0 mph 64 % 0.00 in
16:37 47.7 °F 36.1 °F 30.21 in North 3.9 mph 7.0 mph 64 % 0.00 in
16:48 47.7 °F 36.1 °F 30.21 in North 5.6 mph 11.5 mph 64 % 0.00 in
16:53 47.6 °F 36.0 °F 30.21 in NNE 7.8 mph 12.7 mph 64 % 0.00 in
17:03 47.6 °F 36.8 °F 30.22 in NNE 5.0 mph 8.0 mph 66 % 0.00 in
17:13 47.3 °F 36.1 °F 30.23 in NNE 5.1 mph 9.2 mph 65 % 0.00 in
17:18 47.2 °F 36.4 °F 30.23 in North 5.9 mph 8.1 mph 66 % 0.00 in
17:23 47.1 °F 36.7 °F 30.24 in NE 4.4 mph 10.4 mph 67 % 0.00 in
17:28 47.0 °F 36.2 °F 30.24 in NE 5.5 mph 9.2 mph 66 % 0.00 in
17:33 46.9 °F 36.1 °F 30.24 in North 5.6 mph 11.5 mph 66 % 0.00 in
17:39 46.8 °F 35.6 °F 30.24 in NNE 7.0 mph 12.7 mph 65 % 0.00 in
17:44 46.7 °F 35.9 °F 30.24 in North 8.6 mph 10.4 mph 66 % 0.00 in
17:54 46.5 °F 35.4 °F 30.24 in North 9.4 mph 13.8 mph 65 % 0.00 in
17:59 46.4 °F 35.3 °F 30.24 in NNE 5.1 mph 8.1 mph 65 % 0.00 in
18:04 46.4 °F 34.9 °F 30.24 in NNE 7.8 mph 11.5 mph 64 % 0.00 in
18:09 46.3 °F 34.8 °F 30.25 in NNE 5.5 mph 12.7 mph 64 % 0.00 in
18:14 46.3 °F 34.4 °F 30.25 in NNE 6.8 mph 11.5 mph 63 % 0.00 in
18:19 46.2 °F 34.7 °F 30.25 in NNE 4.6 mph 10.4 mph 64 % 0.00 in
18:29 46.1 °F 35.0 °F 30.25 in NNE 7.2 mph 12.0 mph 65 % 0.00 in
18:39 45.9 °F 34.8 °F 30.26 in NNE 8.4 mph 11.5 mph 65 % 0.00 in
18:50 45.8 °F 35.1 °F 30.26 in North 7.1 mph 10.4 mph 66 % 0.00 in
18:55 45.7 °F 34.6 °F 30.26 in NNE 7.0 mph 12.0 mph 65 % 0.00 in
19:05 45.5 °F 34.4 °F 30.26 in NNE 7.9 mph 11.0 mph 65 % 0.00 in
19:10 45.4 °F 34.3 °F 30.26 in NE 8.4 mph 11.5 mph 65 % 0.00 in
19:15 45.4 °F 34.7 °F 30.26 in NE 5.5 mph 8.0 mph 66 % 0.00 in
19:20 45.3 °F 34.6 °F 30.26 in NNE 6.6 mph 10.4 mph 66 % 0.00 in
19:25 45.2 °F 34.5 °F 30.26 in NNE 6.9 mph 15.0 mph 66 % 0.00 in
19:30 45.1 °F 34.4 °F 30.26 in NNE 8.7 mph 13.8 mph 66 % 0.00 in
19:36 45.0 °F 34.3 °F 30.27 in NNE 8.0 mph 13.0 mph 66 % 0.00 in
19:41 45.0 °F 34.3 °F 30.27 in NNE 8.0 mph 13.0 mph 66 % 0.00 in
19:46 45.0 °F 34.3 °F 30.27 in NNE 8.0 mph 13.0 mph 66 % 0.00 in
19:51 44.9 °F 33.8 °F 30.27 in NNE 8.0 mph 15.0 mph 65 % 0.00 in
19:55 44.8 °F 33.4 °F 30.27 in NNE 8.0 mph 15.0 mph 64 % 0.00 in
20:01 44.8 °F 33.7 °F 30.27 in NNE 8.6 mph 9.2 mph 65 % 0.00 in
20:11 44.7 °F 33.6 °F 30.27 in NNE 9.0 mph 12.0 mph 65 % 0.00 in
20:15 44.7 °F 34.0 °F 30.28 in NNE 8.0 mph 12.0 mph 66 % 0.00 in
20:21 44.6 °F 34.3 °F 30.28 in NNE 7.0 mph 12.0 mph 67 % 0.00 in
20:25 44.5 °F 33.8 °F 30.28 in North 5.6 mph 11.5 mph 66 % 0.00 in
20:30 44.5 °F 33.8 °F 30.28 in NNE 6.6 mph 9.2 mph 66 % 0.00 in
20:36 44.4 °F 33.7 °F 30.28 in NNE 8.0 mph 13.0 mph 66 % 0.00 in
20:40 44.4 °F 33.7 °F 30.28 in NNE 7.0 mph 14.0 mph 66 % 0.00 in
20:50 44.4 °F 33.7 °F 30.28 in NNE 7.6 mph 12.0 mph 66 % 0.00 in
20:55 44.3 °F 33.7 °F 30.28 in NNE 7.0 mph 11.5 mph 66 % 0.00 in
21:06 44.3 °F 33.7 °F 30.28 in NNE 9.0 mph 16.0 mph 66 % 0.00 in
21:10 44.3 °F 34.0 °F 30.28 in NNE 8.0 mph 15.0 mph 67 % 0.00 in
21:16 44.3 °F 34.0 °F 30.28 in NNE 10.0 mph 16.0 mph 67 % 0.00 in
21:21 44.3 °F 34.4 °F 30.28 in NNE 9.0 mph 14.0 mph 68 % 0.00 in
21:41 44.1 °F 34.2 °F 30.29 in NNE 6.0 mph 12.0 mph 68 % 0.00 in
21:45 44.0 °F 34.1 °F 30.28 in NNE 8.0 mph 15.0 mph 68 % 0.00 in
21:50 43.9 °F 33.6 °F 30.28 in NNE 10.0 mph 16.0 mph 67 % 0.00 in
22:06 43.8 °F 33.9 °F 30.29 in NNE 7.0 mph 11.5 mph 68 % 0.00 in
22:11 43.8 °F 33.9 °F 30.29 in NNE 10.2 mph 13.8 mph 68 % 0.00 in
22:16 43.7 °F 33.8 °F 30.29 in NE 8.8 mph 11.5 mph 68 % 0.00 in
22:21 43.7 °F 34.2 °F 30.29 in NNE 9.5 mph 15.0 mph 69 % 0.00 in
22:23 43.7 °F 33.8 °F 30.29 in NNE 7.9 mph 11.5 mph 68 % 0.00 in
22:26 43.7 °F 34.2 °F 30.29 in NNE 9.1 mph 11.5 mph 69 % 0.00 in
22:27 43.7 °F 34.2 °F 30.29 in NNE 8.4 mph 12.7 mph 69 % 0.00 in
22:32 43.6 °F 34.1 °F 30.29 in NNE 8.6 mph 12.7 mph 69 % 0.00 in
22:37 43.6 °F 34.1 °F 30.29 in NE 9.5 mph 13.0 mph 69 % 0.00 in
22:42 43.5 °F 34.0 °F 30.29 in North 6.8 mph 13.8 mph 69 % 0.00 in
22:47 43.4 °F 33.5 °F 30.29 in NE 9.1 mph 13.8 mph 68 % 0.00 in
22:57 43.2 °F 33.7 °F 30.30 in NNE 10.8 mph 16.1 mph 69 % 0.00 in
23:03 43.2 °F 33.7 °F 30.30 in North 9.4 mph 12.7 mph 69 % 0.00 in
23:08 43.2 °F 33.7 °F 30.30 in NNE 8.9 mph 12.7 mph 69 % 0.00 in
23:13 43.1 °F 33.6 °F 30.30 in NE 6.0 mph 11.5 mph 69 % 0.00 in
23:18 43.0 °F 33.5 °F 30.31 in North 6.7 mph 10.4 mph 69 % 0.00 in
23:23 43.0 °F 33.9 °F 30.31 in NNE 8.7 mph 11.5 mph 70 % 0.00 in
23:28 42.9 °F 33.8 °F 30.31 in NNW 6.6 mph 9.2 mph 70 % 0.00 in
23:39 42.7 °F 33.9 °F 30.31 in NNE 6.7 mph 11.5 mph 71 % 0.00 in
23:44 42.6 °F 33.5 °F 30.30 in NNE 5.8 mph 13.8 mph 70 % 0.00 in
23:49 42.5 °F 33.8 °F 30.30 in NE 4.8 mph 11.0 mph 71 % 0.00 in
23:54 42.4 °F 33.7 °F 30.29 in NE 9.0 mph 13.8 mph 71 % 0.00 in
23:59 42.3 °F 33.2 °F 30.29 in NNE 6.0 mph 9.2 mph 70 % 0.00 in
Crab Meadow Weather
Compliments of Weather Underground - 2.75 mb

Script developed by  Jim McMurry - jmcmurry@mwt.net Adapted for the template by  Wim van der Kuil - Leuven-Template.eu

Extremes: In Wyndham, Australia, the temperature reached 90 degrees F for 333 days in 1946.